sensor_id;sensor_type;location;lat;lon;timestamp;temperature;humidity
9975;DHT22;5028;50.974;4.968;2023-01-04T00:00:59;8.80;99.90
9975;DHT22;5028;50.974;4.968;2023-01-04T00:03:36;8.70;99.90
9975;DHT22;5028;50.974;4.968;2023-01-04T00:06:06;8.70;99.90
9975;DHT22;5028;50.974;4.968;2023-01-04T00:08:42;8.60;99.90
9975;DHT22;5028;50.974;4.968;2023-01-04T00:11:13;8.60;99.90
9975;DHT22;5028;50.974;4.968;2023-01-04T00:13:56;8.60;99.90
9975;DHT22;5028;50.974;4.968;2023-01-04T00:16:39;8.60;99.90
9975;DHT22;5028;50.974;4.968;2023-01-04T00:19:15;8.60;99.90
9975;DHT22;5028;50.974;4.968;2023-01-04T00:21:44;8.60;99.90
9975;DHT22;5028;50.974;4.968;2023-01-04T00:24:19;8.60;99.90
9975;DHT22;5028;50.974;4.968;2023-01-04T00:26:47;8.60;99.90
9975;DHT22;5028;50.974;4.968;2023-01-04T00:29:23;8.70;99.90
9975;DHT22;5028;50.974;4.968;2023-01-04T00:31:51;8.70;99.90
9975;DHT22;5028;50.974;4.968;2023-01-04T00:34:27;8.70;99.90
9975;DHT22;5028;50.974;4.968;2023-01-04T00:36:55;8.70;99.90
9975;DHT22;5028;50.974;4.968;2023-01-04T00:39:31;8.70;99.90
9975;DHT22;5028;50.974;4.968;2023-01-04T00:41:59;8.70;99.90
9975;DHT22;5028;50.974;4.968;2023-01-04T00:44:39;8.70;99.90
9975;DHT22;5028;50.974;4.968;2023-01-04T00:47:07;8.80;99.90
9975;DHT22;5028;50.974;4.968;2023-01-04T00:49:44;8.80;99.90
9975;DHT22;5028;50.974;4.968;2023-01-04T00:52:12;8.80;99.90
9975;DHT22;5028;50.974;4.968;2023-01-04T00:54:48;8.80;99.90
9975;DHT22;5028;50.974;4.968;2023-01-04T00:57:16;8.90;99.90
9975;DHT22;5028;50.974;4.968;2023-01-04T00:59:52;8.90;99.90
9975;DHT22;5028;50.974;4.968;2023-01-04T01:02:20;8.90;99.90
9975;DHT22;5028;50.974;4.968;2023-01-04T01:04:59;8.90;99.90
9975;DHT22;5028;50.974;4.968;2023-01-04T01:07:28;9.00;99.90
9975;DHT22;5028;50.974;4.968;2023-01-04T01:10:03;9.00;99.90
9975;DHT22;5028;50.974;4.968;2023-01-04T01:12:32;9.00;99.90
9975;DHT22;5028;50.974;4.968;2023-01-04T01:15:13;9.00;99.90
9975;DHT22;5028;50.974;4.968;2023-01-04T01:17:42;9.00;99.90
9975;DHT22;5028;50.974;4.968;2023-01-04T01:20:19;9.00;99.90
9975;DHT22;5028;50.974;4.968;2023-01-04T01:22:49;9.10;99.90
9975;DHT22;5028;50.974;4.968;2023-01-04T01:25:24;9.00;99.90
9975;DHT22;5028;50.974;4.968;2023-01-04T01:27:52;9.10;99.90
9975;DHT22;5028;50.974;4.968;2023-01-04T01:30:27;9.10;99.90
9975;DHT22;5028;50.974;4.968;2023-01-04T01:32:55;9.10;99.90
9975;DHT22;5028;50.974;4.968;2023-01-04T01:35:31;9.10;99.90
9975;DHT22;5028;50.974;4.968;2023-01-04T01:38:00;9.10;99.90
9975;DHT22;5028;50.974;4.968;2023-01-04T01:40:39;9.10;99.90
9975;DHT22;5028;50.974;4.968;2023-01-04T01:43:15;9.10;99.90
9975;DHT22;5028;50.974;4.968;2023-01-04T01:45:52;9.10;99.90
9975;DHT22;5028;50.974;4.968;2023-01-04T01:48:26;9.10;99.90
9975;DHT22;5028;50.974;4.968;2023-01-04T01:51:04;9.10;99.90
9975;DHT22;5028;50.974;4.968;2023-01-04T01:53:36;9.10;99.90
9975;DHT22;5028;50.974;4.968;2023-01-04T01:56:16;9.10;99.90
9975;DHT22;5028;50.974;4.968;2023-01-04T01:58:50;9.10;99.90
9975;DHT22;5028;50.974;4.968;2023-01-04T02:01:27;9.10;99.90
9975;DHT22;5028;50.974;4.968;2023-01-04T02:03:55;9.20;99.90
9975;DHT22;5028;50.974;4.968;2023-01-04T02:06:38;9.20;99.90
9975;DHT22;5028;50.974;4.968;2023-01-04T02:09:08;9.20;99.90
9975;DHT22;5028;50.974;4.968;2023-01-04T02:11:44;9.20;99.90
9975;DHT22;5028;50.974;4.968;2023-01-04T02:14:13;9.20;99.90
9975;DHT22;5028;50.974;4.968;2023-01-04T02:17:07;9.20;99.90
9975;DHT22;5028;50.974;4.968;2023-01-04T02:20:05;9.20;99.90
9975;DHT22;5028;50.974;4.968;2023-01-04T02:29:38;9.20;99.90
9975;DHT22;5028;50.974;4.968;2023-01-04T02:32:24;9.10;99.90
9975;DHT22;5028;50.974;4.968;2023-01-04T02:35:02;9.10;99.90
9975;DHT22;5028;50.974;4.968;2023-01-04T02:37:44;9.20;99.90
9975;DHT22;5028;50.974;4.968;2023-01-04T02:40:20;9.20;99.90
9975;DHT22;5028;50.974;4.968;2023-01-04T02:43:03;9.20;99.90
9975;DHT22;5028;50.974;4.968;2023-01-04T02:45:53;9.20;99.90
9975;DHT22;5028;50.974;4.968;2023-01-04T02:48:35;9.20;99.90
9975;DHT22;5028;50.974;4.968;2023-01-04T02:51:27;9.20;99.90
9975;DHT22;5028;50.974;4.968;2023-01-04T02:54:05;9.20;99.90
9975;DHT22;5028;50.974;4.968;2023-01-04T02:56:46;9.30;99.90
9975;DHT22;5028;50.974;4.968;2023-01-04T02:59:56;9.30;99.90
9975;DHT22;5028;50.974;4.968;2023-01-04T03:02:59;9.30;99.90
9975;DHT22;5028;50.974;4.968;2023-01-04T03:05:58;9.40;99.90
9975;DHT22;5028;50.974;4.968;2023-01-04T03:08:56;9.40;99.90
9975;DHT22;5028;50.974;4.968;2023-01-04T03:11:32;9.40;99.90
9975;DHT22;5028;50.974;4.968;2023-01-04T03:14:36;9.40;99.90
9975;DHT22;5028;50.974;4.968;2023-01-04T03:17:20;9.40;99.90
9975;DHT22;5028;50.974;4.968;2023-01-04T03:19:58;9.40;99.90
9975;DHT22;5028;50.974;4.968;2023-01-04T03:22:34;9.40;99.90
9975;DHT22;5028;50.974;4.968;2023-01-04T03:25:30;9.40;99.90
9975;DHT22;5028;50.974;4.968;2023-01-04T03:28:19;9.40;99.90
9975;DHT22;5028;50.974;4.968;2023-01-04T03:31:17;9.40;99.90
9975;DHT22;5028;50.974;4.968;2023-01-04T03:34:04;9.50;99.90
9975;DHT22;5028;50.974;4.968;2023-01-04T03:37:09;9.50;99.90
9975;DHT22;5028;50.974;4.968;2023-01-04T03:39:52;9.50;99.90
9975;DHT22;5028;50.974;4.968;2023-01-04T03:42:55;9.50;99.90
9975;DHT22;5028;50.974;4.968;2023-01-04T03:45:45;9.60;99.90
9975;DHT22;5028;50.974;4.968;2023-01-04T03:48:45;9.60;99.90
9975;DHT22;5028;50.974;4.968;2023-01-04T03:51:16;9.60;99.90
9975;DHT22;5028;50.974;4.968;2023-01-04T03:53:54;9.70;99.90
9975;DHT22;5028;50.974;4.968;2023-01-04T03:56:26;9.70;99.90
9975;DHT22;5028;50.974;4.968;2023-01-04T03:59:03;9.70;99.90
9975;DHT22;5028;50.974;4.968;2023-01-04T04:01:33;9.80;99.90
9975;DHT22;5028;50.974;4.968;2023-01-04T04:04:08;9.80;99.90
9975;DHT22;5028;50.974;4.968;2023-01-04T04:06:54;9.80;99.90
9975;DHT22;5028;50.974;4.968;2023-01-04T04:09:47;9.80;99.90
9975;DHT22;5028;50.974;4.968;2023-01-04T04:12:18;9.90;99.90
9975;DHT22;5028;50.974;4.968;2023-01-04T04:14:59;9.90;99.90
9975;DHT22;5028;50.974;4.968;2023-01-04T04:17:41;9.90;99.90
9975;DHT22;5028;50.974;4.968;2023-01-04T04:20:16;9.90;99.90
9975;DHT22;5028;50.974;4.968;2023-01-04T04:22:45;10.00;99.90
9975;DHT22;5028;50.974;4.968;2023-01-04T04:25:20;10.00;99.90
9975;DHT22;5028;50.974;4.968;2023-01-04T04:27:50;10.00;99.90
9975;DHT22;5028;50.974;4.968;2023-01-04T04:30:25;10.00;99.90
9975;DHT22;5028;50.974;4.968;2023-01-04T04:32:53;10.10;99.90
9975;DHT22;5028;50.974;4.968;2023-01-04T04:35:28;10.10;99.90
9975;DHT22;5028;50.974;4.968;2023-01-04T04:37:57;10.10;99.90
9975;DHT22;5028;50.974;4.968;2023-01-04T04:40:32;10.10;99.90
9975;DHT22;5028;50.974;4.968;2023-01-04T04:43:19;10.20;99.90
9975;DHT22;5028;50.974;4.968;2023-01-04T04:45:54;10.20;99.90
9975;DHT22;5028;50.974;4.968;2023-01-04T04:48:23;10.20;99.90
9975;DHT22;5028;50.974;4.968;2023-01-04T04:50:58;10.20;99.90
9975;DHT22;5028;50.974;4.968;2023-01-04T04:53:27;10.20;99.90
9975;DHT22;5028;50.974;4.968;2023-01-04T04:56:02;10.30;99.90
9975;DHT22;5028;50.974;4.968;2023-01-04T04:58:32;10.30;99.90
9975;DHT22;5028;50.974;4.968;2023-01-04T05:01:08;10.30;99.90
9975;DHT22;5028;50.974;4.968;2023-01-04T05:03:37;10.40;99.90
9975;DHT22;5028;50.974;4.968;2023-01-04T05:06:12;10.40;99.90
9975;DHT22;5028;50.974;4.968;2023-01-04T05:08:41;10.40;99.90
9975;DHT22;5028;50.974;4.968;2023-01-04T05:11:16;10.40;99.90
9975;DHT22;5028;50.974;4.968;2023-01-04T05:14:07;10.50;99.90
9975;DHT22;5028;50.974;4.968;2023-01-04T05:16:48;10.50;99.90
9975;DHT22;5028;50.974;4.968;2023-01-04T05:19:16;10.50;99.90
9975;DHT22;5028;50.974;4.968;2023-01-04T05:21:51;10.50;99.90
9975;DHT22;5028;50.974;4.968;2023-01-04T05:24:20;10.50;99.90
9975;DHT22;5028;50.974;4.968;2023-01-04T05:26:55;10.50;99.90
9975;DHT22;5028;50.974;4.968;2023-01-04T05:29:25;10.60;99.90
9975;DHT22;5028;50.974;4.968;2023-01-04T05:32:17;10.60;99.90
9975;DHT22;5028;50.974;4.968;2023-01-04T05:34:45;10.60;99.90
9975;DHT22;5028;50.974;4.968;2023-01-04T05:37:20;10.60;99.90
9975;DHT22;5028;50.974;4.968;2023-01-04T05:39:48;10.60;99.90
9975;DHT22;5028;50.974;4.968;2023-01-04T05:42:24;10.60;99.90
9975;DHT22;5028;50.974;4.968;2023-01-04T05:44:55;10.60;99.90
9975;DHT22;5028;50.974;4.968;2023-01-04T05:47:31;10.70;99.90
9975;DHT22;5028;50.974;4.968;2023-01-04T05:49:59;10.70;99.90
9975;DHT22;5028;50.974;4.968;2023-01-04T05:52:34;10.70;99.90
9975;DHT22;5028;50.974;4.968;2023-01-04T05:55:03;10.70;99.90
9975;DHT22;5028;50.974;4.968;2023-01-04T05:57:40;10.70;99.90
9975;DHT22;5028;50.974;4.968;2023-01-04T06:00:11;10.70;99.90
9975;DHT22;5028;50.974;4.968;2023-01-04T06:02:46;10.70;99.90
9975;DHT22;5028;50.974;4.968;2023-01-04T06:05:15;10.70;99.90
9975;DHT22;5028;50.974;4.968;2023-01-04T06:07:50;10.70;99.90
9975;DHT22;5028;50.974;4.968;2023-01-04T06:10:19;10.70;99.90
9975;DHT22;5028;50.974;4.968;2023-01-04T06:12:55;10.70;99.90
9975;DHT22;5028;50.974;4.968;2023-01-04T06:15:25;10.70;99.90
9975;DHT22;5028;50.974;4.968;2023-01-04T06:18:09;10.80;99.90
9975;DHT22;5028;50.974;4.968;2023-01-04T06:20:44;10.70;99.90
9975;DHT22;5028;50.974;4.968;2023-01-04T06:23:20;10.80;99.90
9975;DHT22;5028;50.974;4.968;2023-01-04T06:25:48;10.80;99.90
9975;DHT22;5028;50.974;4.968;2023-01-04T06:28:23;10.80;99.90
9975;DHT22;5028;50.974;4.968;2023-01-04T06:30:53;10.80;99.90
9975;DHT22;5028;50.974;4.968;2023-01-04T06:33:28;10.90;99.90
9975;DHT22;5028;50.974;4.968;2023-01-04T06:35:57;10.90;99.90
9975;DHT22;5028;50.974;4.968;2023-01-04T06:38:32;10.90;99.90
9975;DHT22;5028;50.974;4.968;2023-01-04T06:41:01;11.00;99.90
9975;DHT22;5028;50.974;4.968;2023-01-04T06:43:37;11.00;99.90
9975;DHT22;5028;50.974;4.968;2023-01-04T06:46:07;10.90;99.90
9975;DHT22;5028;50.974;4.968;2023-01-04T06:48:42;10.90;99.90
9975;DHT22;5028;50.974;4.968;2023-01-04T06:51:11;10.90;99.90
9975;DHT22;5028;50.974;4.968;2023-01-04T06:53:46;10.80;99.90
9975;DHT22;5028;50.974;4.968;2023-01-04T06:56:15;10.80;99.90
9975;DHT22;5028;50.974;4.968;2023-01-04T06:58:50;10.80;99.90
9975;DHT22;5028;50.974;4.968;2023-01-04T07:01:20;10.90;99.90
9975;DHT22;5028;50.974;4.968;2023-01-04T07:03:55;10.90;99.90
9975;DHT22;5028;50.974;4.968;2023-01-04T07:06:24;10.90;99.90
9975;DHT22;5028;50.974;4.968;2023-01-04T07:08:59;10.90;99.90
9975;DHT22;5028;50.974;4.968;2023-01-04T07:11:28;10.90;99.90
9975;DHT22;5028;50.974;4.968;2023-01-04T07:14:10;10.90;99.90
9975;DHT22;5028;50.974;4.968;2023-01-04T07:16:52;10.90;99.90
9975;DHT22;5028;50.974;4.968;2023-01-04T07:19:21;11.00;99.90
9975;DHT22;5028;50.974;4.968;2023-01-04T07:21:56;11.00;99.90
9975;DHT22;5028;50.974;4.968;2023-01-04T07:24:25;11.00;99.90
9975;DHT22;5028;50.974;4.968;2023-01-04T07:27:00;11.00;99.90
9975;DHT22;5028;50.974;4.968;2023-01-04T07:29:29;11.10;99.90
9975;DHT22;5028;50.974;4.968;2023-01-04T07:32:06;11.00;99.90
9975;DHT22;5028;50.974;4.968;2023-01-04T07:34:39;11.00;99.90
9975;DHT22;5028;50.974;4.968;2023-01-04T07:37:15;11.10;99.90
9975;DHT22;5028;50.974;4.968;2023-01-04T07:39:44;11.10;99.90
9975;DHT22;5028;50.974;4.968;2023-01-04T07:42:21;11.10;99.90
9975;DHT22;5028;50.974;4.968;2023-01-04T07:44:50;11.10;99.90
9975;DHT22;5028;50.974;4.968;2023-01-04T07:47:28;11.20;99.90
9975;DHT22;5028;50.974;4.968;2023-01-04T07:49:56;11.20;99.90
9975;DHT22;5028;50.974;4.968;2023-01-04T07:52:32;11.20;99.90
9975;DHT22;5028;50.974;4.968;2023-01-04T07:55:00;11.20;99.90
9975;DHT22;5028;50.974;4.968;2023-01-04T07:57:35;11.30;99.90
9975;DHT22;5028;50.974;4.968;2023-01-04T08:00:05;11.30;99.90
9975;DHT22;5028;50.974;4.968;2023-01-04T08:02:41;11.30;99.90
9975;DHT22;5028;50.974;4.968;2023-01-04T08:05:10;11.30;99.90
9975;DHT22;5028;50.974;4.968;2023-01-04T08:07:45;11.30;99.90
9975;DHT22;5028;50.974;4.968;2023-01-04T08:10:14;11.40;99.90
9975;DHT22;5028;50.974;4.968;2023-01-04T08:12:49;11.40;99.90
9975;DHT22;5028;50.974;4.968;2023-01-04T08:15:24;11.40;99.90
9975;DHT22;5028;50.974;4.968;2023-01-04T08:18:01;11.40;99.90
9975;DHT22;5028;50.974;4.968;2023-01-04T08:20:29;11.50;99.90
9975;DHT22;5028;50.974;4.968;2023-01-04T08:23:04;11.50;99.90
9975;DHT22;5028;50.974;4.968;2023-01-04T08:25:33;11.50;99.90
9975;DHT22;5028;50.974;4.968;2023-01-04T08:28:08;11.50;99.90
9975;DHT22;5028;50.974;4.968;2023-01-04T08:30:36;11.50;99.90
9975;DHT22;5028;50.974;4.968;2023-01-04T08:33:14;11.50;99.90
9975;DHT22;5028;50.974;4.968;2023-01-04T08:35:42;11.50;99.90
9975;DHT22;5028;50.974;4.968;2023-01-04T08:38:17;11.50;99.90
9975;DHT22;5028;50.974;4.968;2023-01-04T08:41:05;11.50;99.90
9975;DHT22;5028;50.974;4.968;2023-01-04T08:44:00;11.50;99.90
9975;DHT22;5028;50.974;4.968;2023-01-04T08:46:29;11.50;99.90
9975;DHT22;5028;50.974;4.968;2023-01-04T08:49:05;11.50;99.90
9975;DHT22;5028;50.974;4.968;2023-01-04T08:51:33;11.50;99.90
9975;DHT22;5028;50.974;4.968;2023-01-04T08:54:09;11.40;99.90
9975;DHT22;5028;50.974;4.968;2023-01-04T08:56:37;11.50;99.90
9975;DHT22;5028;50.974;4.968;2023-01-04T08:59:13;11.40;99.90
9975;DHT22;5028;50.974;4.968;2023-01-04T09:01:42;11.40;99.90
9975;DHT22;5028;50.974;4.968;2023-01-04T09:04:20;11.50;99.90
9975;DHT22;5028;50.974;4.968;2023-01-04T09:06:49;11.50;99.90
9975;DHT22;5028;50.974;4.968;2023-01-04T09:09:23;11.50;99.90
9975;DHT22;5028;50.974;4.968;2023-01-04T09:11:52;11.50;99.90
9975;DHT22;5028;50.974;4.968;2023-01-04T09:14:26;11.40;99.90
9975;DHT22;5028;50.974;4.968;2023-01-04T09:17:09;11.50;99.90
9975;DHT22;5028;50.974;4.968;2023-01-04T09:19:46;11.50;99.90
9975;DHT22;5028;50.974;4.968;2023-01-04T09:22:14;11.50;99.90
9975;DHT22;5028;50.974;4.968;2023-01-04T09:24:49;11.50;99.90
9975;DHT22;5028;50.974;4.968;2023-01-04T09:27:18;11.50;99.90
9975;DHT22;5028;50.974;4.968;2023-01-04T09:29:53;11.50;99.90
9975;DHT22;5028;50.974;4.968;2023-01-04T09:32:23;11.60;99.90
9975;DHT22;5028;50.974;4.968;2023-01-04T09:34:59;11.60;99.90
9975;DHT22;5028;50.974;4.968;2023-01-04T09:37:28;11.60;99.90
9975;DHT22;5028;50.974;4.968;2023-01-04T09:40:04;11.60;99.90
9975;DHT22;5028;50.974;4.968;2023-01-04T09:42:35;11.70;99.90
9975;DHT22;5028;50.974;4.968;2023-01-04T09:45:16;11.70;99.90
9975;DHT22;5028;50.974;4.968;2023-01-04T09:47:54;11.70;99.90
9975;DHT22;5028;50.974;4.968;2023-01-04T09:50:35;11.70;99.90
9975;DHT22;5028;50.974;4.968;2023-01-04T09:53:11;11.70;99.90
9975;DHT22;5028;50.974;4.968;2023-01-04T09:55:50;11.70;99.90
9975;DHT22;5028;50.974;4.968;2023-01-04T09:58:26;11.70;99.90
9975;DHT22;5028;50.974;4.968;2023-01-04T10:01:03;11.80;99.90
9975;DHT22;5028;50.974;4.968;2023-01-04T10:03:34;11.80;99.90
9975;DHT22;5028;50.974;4.968;2023-01-04T10:06:12;11.80;99.90
9975;DHT22;5028;50.974;4.968;2023-01-04T10:08:42;11.90;99.90
9975;DHT22;5028;50.974;4.968;2023-01-04T10:11:32;11.90;99.90
9975;DHT22;5028;50.974;4.968;2023-01-04T10:14:13;11.90;99.90
9975;DHT22;5028;50.974;4.968;2023-01-04T10:17:09;12.00;99.90
9975;DHT22;5028;50.974;4.968;2023-01-04T10:20:28;12.00;99.90
9975;DHT22;5028;50.974;4.968;2023-01-04T10:23:35;12.00;99.90
9975;DHT22;5028;50.974;4.968;2023-01-04T10:26:10;12.00;99.90
9975;DHT22;5028;50.974;4.968;2023-01-04T10:28:59;12.00;99.90
9975;DHT22;5028;50.974;4.968;2023-01-04T10:31:36;12.00;99.90
9975;DHT22;5028;50.974;4.968;2023-01-04T10:34:20;12.00;99.90
9975;DHT22;5028;50.974;4.968;2023-01-04T10:36:52;12.00;99.90
9975;DHT22;5028;50.974;4.968;2023-01-04T10:39:33;12.00;99.90
9975;DHT22;5028;50.974;4.968;2023-01-04T10:42:13;12.00;99.90
9975;DHT22;5028;50.974;4.968;2023-01-04T10:44:55;11.90;99.90
9975;DHT22;5028;50.974;4.968;2023-01-04T10:47:42;12.00;99.90
9975;DHT22;5028;50.974;4.968;2023-01-04T10:50:26;11.90;99.90
9975;DHT22;5028;50.974;4.968;2023-01-04T10:53:01;11.90;99.90
9975;DHT22;5028;50.974;4.968;2023-01-04T10:55:42;11.90;99.90
9975;DHT22;5028;50.974;4.968;2023-01-04T10:58:36;11.90;99.90
9975;DHT22;5028;50.974;4.968;2023-01-04T11:01:17;11.90;99.90
9975;DHT22;5028;50.974;4.968;2023-01-04T11:03:50;11.90;99.90
9975;DHT22;5028;50.974;4.968;2023-01-04T11:06:28;11.90;99.90
9975;DHT22;5028;50.974;4.968;2023-01-04T11:09:00;11.80;99.90
9975;DHT22;5028;50.974;4.968;2023-01-04T11:11:42;11.80;99.90
9975;DHT22;5028;50.974;4.968;2023-01-04T11:14:12;11.80;99.90
9975;DHT22;5028;50.974;4.968;2023-01-04T11:16:58;11.80;99.90
9975;DHT22;5028;50.974;4.968;2023-01-04T11:19:28;11.80;99.90
9975;DHT22;5028;50.974;4.968;2023-01-04T11:22:05;11.80;99.90
9975;DHT22;5028;50.974;4.968;2023-01-04T11:24:39;11.80;99.90
9975;DHT22;5028;50.974;4.968;2023-01-04T11:27:41;11.80;99.90
9975;DHT22;5028;50.974;4.968;2023-01-04T11:30:15;11.80;99.90
9975;DHT22;5028;50.974;4.968;2023-01-04T11:32:55;11.80;99.90
9975;DHT22;5028;50.974;4.968;2023-01-04T11:35:43;11.80;99.90
9975;DHT22;5028;50.974;4.968;2023-01-04T11:38:20;11.70;99.90
9975;DHT22;5028;50.974;4.968;2023-01-04T11:40:57;11.80;99.90
9975;DHT22;5028;50.974;4.968;2023-01-04T11:43:36;11.80;99.90
9975;DHT22;5028;50.974;4.968;2023-01-04T11:46:20;11.90;99.90
9975;DHT22;5028;50.974;4.968;2023-01-04T11:48:56;11.80;99.90
9975;DHT22;5028;50.974;4.968;2023-01-04T11:51:36;11.80;99.90
9975;DHT22;5028;50.974;4.968;2023-01-04T11:54:18;11.90;99.90
9975;DHT22;5028;50.974;4.968;2023-01-04T11:56:59;11.80;99.90
9975;DHT22;5028;50.974;4.968;2023-01-04T12:00:12;11.80;99.90
9975;DHT22;5028;50.974;4.968;2023-01-04T12:02:42;11.80;99.90
9975;DHT22;5028;50.974;4.968;2023-01-04T12:05:28;11.80;99.90
9975;DHT22;5028;50.974;4.968;2023-01-04T12:07:57;11.90;99.90
9975;DHT22;5028;50.974;4.968;2023-01-04T12:10:32;11.80;99.90
9975;DHT22;5028;50.974;4.968;2023-01-04T12:13:01;11.90;99.90
9975;DHT22;5028;50.974;4.968;2023-01-04T12:15:44;11.80;99.90
9975;DHT22;5028;50.974;4.968;2023-01-04T12:18:31;11.80;99.90
9975;DHT22;5028;50.974;4.968;2023-01-04T12:21:13;11.90;99.90
9975;DHT22;5028;50.974;4.968;2023-01-04T12:23:44;11.90;99.90
9975;DHT22;5028;50.974;4.968;2023-01-04T12:26:20;11.90;99.90
9975;DHT22;5028;50.974;4.968;2023-01-04T12:28:50;11.90;99.90
9975;DHT22;5028;50.974;4.968;2023-01-04T12:31:32;11.90;99.90
9975;DHT22;5028;50.974;4.968;2023-01-04T12:34:39;11.90;99.90
9975;DHT22;5028;50.974;4.968;2023-01-04T12:37:09;12.00;99.90
9975;DHT22;5028;50.974;4.968;2023-01-04T12:39:44;12.00;99.90
9975;DHT22;5028;50.974;4.968;2023-01-04T12:42:20;12.00;99.90
9975;DHT22;5028;50.974;4.968;2023-01-04T12:47:57;12.00;99.90
9975;DHT22;5028;50.974;4.968;2023-01-04T12:51:16;12.10;99.90
9975;DHT22;5028;50.974;4.968;2023-01-04T12:54:02;12.10;99.90
9975;DHT22;5028;50.974;4.968;2023-01-04T12:57:09;12.10;99.90
9975;DHT22;5028;50.974;4.968;2023-01-04T12:59:53;12.10;99.90
9975;DHT22;5028;50.974;4.968;2023-01-04T13:02:30;12.10;99.90
9975;DHT22;5028;50.974;4.968;2023-01-04T13:05:02;12.10;99.90
9975;DHT22;5028;50.974;4.968;2023-01-04T13:07:58;12.10;99.90
9975;DHT22;5028;50.974;4.968;2023-01-04T13:10:31;12.20;99.90
9975;DHT22;5028;50.974;4.968;2023-01-04T13:13:29;12.20;99.90
9975;DHT22;5028;50.974;4.968;2023-01-04T13:16:14;12.20;99.90
9975;DHT22;5028;50.974;4.968;2023-01-04T13:19:00;12.20;99.90
9975;DHT22;5028;50.974;4.968;2023-01-04T13:21:40;12.20;99.90
9975;DHT22;5028;50.974;4.968;2023-01-04T13:24:18;12.20;99.90
9975;DHT22;5028;50.974;4.968;2023-01-04T13:26:54;12.20;99.90
9975;DHT22;5028;50.974;4.968;2023-01-04T13:29:25;12.20;99.90
9975;DHT22;5028;50.974;4.968;2023-01-04T13:32:02;12.20;99.90
9975;DHT22;5028;50.974;4.968;2023-01-04T13:34:32;12.30;99.90
9975;DHT22;5028;50.974;4.968;2023-01-04T13:37:27;12.20;99.90
9975;DHT22;5028;50.974;4.968;2023-01-04T13:40:10;12.20;99.90
9975;DHT22;5028;50.974;4.968;2023-01-04T13:42:47;12.30;99.90
9975;DHT22;5028;50.974;4.968;2023-01-04T13:45:58;12.20;99.90
9975;DHT22;5028;50.974;4.968;2023-01-04T13:48:37;12.30;99.90
9975;DHT22;5028;50.974;4.968;2023-01-04T13:51:14;12.30;99.90
9975;DHT22;5028;50.974;4.968;2023-01-04T13:53:56;12.30;99.90
9975;DHT22;5028;50.974;4.968;2023-01-04T13:56:26;12.30;99.90
9975;DHT22;5028;50.974;4.968;2023-01-04T13:59:01;12.40;99.90
9975;DHT22;5028;50.974;4.968;2023-01-04T14:01:33;12.40;99.90
9975;DHT22;5028;50.974;4.968;2023-01-04T14:04:14;12.40;99.90
9975;DHT22;5028;50.974;4.968;2023-01-04T14:06:46;12.50;99.90
9975;DHT22;5028;50.974;4.968;2023-01-04T14:09:25;12.40;99.90
9975;DHT22;5028;50.974;4.968;2023-01-04T14:11:56;12.50;99.90
9975;DHT22;5028;50.974;4.968;2023-01-04T14:14:38;12.50;99.90
9975;DHT22;5028;50.974;4.968;2023-01-04T14:17:18;12.50;99.90
9975;DHT22;5028;50.974;4.968;2023-01-04T14:20:01;12.50;99.90
9975;DHT22;5028;50.974;4.968;2023-01-04T14:22:41;12.60;99.90
9975;DHT22;5028;50.974;4.968;2023-01-04T14:25:37;12.50;99.90
9975;DHT22;5028;50.974;4.968;2023-01-04T14:28:38;12.60;99.90
9975;DHT22;5028;50.974;4.968;2023-01-04T14:34:13;12.50;99.90
9975;DHT22;5028;50.974;4.968;2023-01-04T14:36:42;12.50;99.90
9975;DHT22;5028;50.974;4.968;2023-01-04T14:39:24;12.50;99.90
9975;DHT22;5028;50.974;4.968;2023-01-04T14:41:57;12.50;99.90
9975;DHT22;5028;50.974;4.968;2023-01-04T14:44:33;12.50;99.90
9975;DHT22;5028;50.974;4.968;2023-01-04T14:47:10;12.40;99.90
9975;DHT22;5028;50.974;4.968;2023-01-04T14:49:44;12.40;99.90
9975;DHT22;5028;50.974;4.968;2023-01-04T14:52:20;12.40;99.90
9975;DHT22;5028;50.974;4.968;2023-01-04T14:54:56;12.40;99.90
9975;DHT22;5028;50.974;4.968;2023-01-04T14:57:26;12.30;99.90
9975;DHT22;5028;50.974;4.968;2023-01-04T15:00:02;12.30;99.90
9975;DHT22;5028;50.974;4.968;2023-01-04T15:02:31;12.20;99.90
9975;DHT22;5028;50.974;4.968;2023-01-04T15:05:08;12.30;99.90
9975;DHT22;5028;50.974;4.968;2023-01-04T15:07:38;12.30;99.90
9975;DHT22;5028;50.974;4.968;2023-01-04T15:10:19;12.30;99.90
9975;DHT22;5028;50.974;4.968;2023-01-04T15:12:50;12.30;99.90
9975;DHT22;5028;50.974;4.968;2023-01-04T15:15:32;12.30;99.90
9975;DHT22;5028;50.974;4.968;2023-01-04T15:18:15;12.30;99.90
9975;DHT22;5028;50.974;4.968;2023-01-04T15:20:50;12.30;99.90
9975;DHT22;5028;50.974;4.968;2023-01-04T15:23:19;12.30;99.90
9975;DHT22;5028;50.974;4.968;2023-01-04T15:25:54;12.30;99.90
9975;DHT22;5028;50.974;4.968;2023-01-04T15:28:24;12.30;99.90
9975;DHT22;5028;50.974;4.968;2023-01-04T15:30:59;12.30;99.90
9975;DHT22;5028;50.974;4.968;2023-01-04T15:33:28;12.30;99.90
9975;DHT22;5028;50.974;4.968;2023-01-04T15:36:06;12.30;99.90
9975;DHT22;5028;50.974;4.968;2023-01-04T15:38:36;12.30;99.90
9975;DHT22;5028;50.974;4.968;2023-01-04T15:41:13;12.30;99.90
9975;DHT22;5028;50.974;4.968;2023-01-04T15:44:04;12.30;99.90
9975;DHT22;5028;50.974;4.968;2023-01-04T15:46:38;12.20;99.90
9975;DHT22;5028;50.974;4.968;2023-01-04T15:49:06;12.20;99.90
9975;DHT22;5028;50.974;4.968;2023-01-04T15:51:43;12.10;99.90
9975;DHT22;5028;50.974;4.968;2023-01-04T15:54:13;12.00;99.90
9975;DHT22;5028;50.974;4.968;2023-01-04T15:56:49;12.00;99.90
9975;DHT22;5028;50.974;4.968;2023-01-04T15:59:19;12.00;99.90
9975;DHT22;5028;50.974;4.968;2023-01-04T16:01:54;12.00;99.90
9975;DHT22;5028;50.974;4.968;2023-01-04T16:04:23;12.00;99.90
9975;DHT22;5028;50.974;4.968;2023-01-04T16:06:57;12.00;99.90
9975;DHT22;5028;50.974;4.968;2023-01-04T16:09:26;12.00;99.90
9975;DHT22;5028;50.974;4.968;2023-01-04T16:12:02;12.00;99.90
9975;DHT22;5028;50.974;4.968;2023-01-04T16:14:49;12.00;99.90
9975;DHT22;5028;50.974;4.968;2023-01-04T16:17:30;12.00;99.90
9975;DHT22;5028;50.974;4.968;2023-01-04T16:19:58;12.00;99.90
9975;DHT22;5028;50.974;4.968;2023-01-04T16:22:33;12.00;99.90
9975;DHT22;5028;50.974;4.968;2023-01-04T16:25:03;11.90;99.90
9975;DHT22;5028;50.974;4.968;2023-01-04T16:27:39;12.00;99.90
9975;DHT22;5028;50.974;4.968;2023-01-04T16:30:11;11.90;99.90
9975;DHT22;5028;50.974;4.968;2023-01-04T16:32:55;12.00;99.90
9975;DHT22;5028;50.974;4.968;2023-01-04T16:35:23;11.90;99.90
9975;DHT22;5028;50.974;4.968;2023-01-04T16:37:59;11.90;99.90
9975;DHT22;5028;50.974;4.968;2023-01-04T16:40:27;11.90;99.90
9975;DHT22;5028;50.974;4.968;2023-01-04T16:43:03;11.90;99.90
9975;DHT22;5028;50.974;4.968;2023-01-04T16:45:34;11.90;99.90
9975;DHT22;5028;50.974;4.968;2023-01-04T16:48:09;11.90;99.90
9975;DHT22;5028;50.974;4.968;2023-01-04T16:50:44;11.80;99.90
9975;DHT22;5028;50.974;4.968;2023-01-04T16:53:18;11.80;99.90
9975;DHT22;5028;50.974;4.968;2023-01-04T16:55:47;11.70;99.90
9975;DHT22;5028;50.974;4.968;2023-01-04T16:58:23;11.80;99.90
9975;DHT22;5028;50.974;4.968;2023-01-04T17:00:53;11.80;99.90
9975;DHT22;5028;50.974;4.968;2023-01-04T17:03:28;11.80;99.90
9975;DHT22;5028;50.974;4.968;2023-01-04T17:05:57;11.80;99.90
9975;DHT22;5028;50.974;4.968;2023-01-04T17:08:33;11.80;99.90
9975;DHT22;5028;50.974;4.968;2023-01-04T17:11:09;11.80;99.90
9975;DHT22;5028;50.974;4.968;2023-01-04T17:14:06;11.80;99.90
9975;DHT22;5028;50.974;4.968;2023-01-04T17:16:36;11.80;99.90
9975;DHT22;5028;50.974;4.968;2023-01-04T17:19:24;11.80;99.90
9975;DHT22;5028;50.974;4.968;2023-01-04T17:21:53;11.90;99.90